createdAt,value
2022-09-22T00:01:42.092Z,101853.97
2022-09-22T00:06:46.653Z,101846.41
2022-09-22T00:11:51.126Z,101845.63
2022-09-22T00:16:55.297Z,101849.81
2022-09-22T00:21:56.884Z,101849.84
2022-09-22T00:26:59.433Z,101844.22
2022-09-22T00:32:06.954Z,101845.50
2022-09-22T00:37:08.966Z,101846.63
2022-09-22T00:42:10.917Z,101842.66
2022-09-22T00:47:19.394Z,101846.31
2022-09-22T00:52:45.395Z,101838.47
2022-09-22T00:57:48.117Z,101838.78
2022-09-22T01:02:52.401Z,101836.88
2022-09-22T01:07:53.972Z,101834.66
2022-09-22T01:13:04.382Z,101822.91
2022-09-22T01:18:37.500Z,101827.91
2022-09-22T01:23:53.228Z,101818.13
2022-09-22T01:29:33.399Z,101815.53
2022-09-22T01:35:03.487Z,101809.75
2022-09-22T01:40:09.396Z,101811.84
2022-09-22T01:45:16.065Z,101798.41
2022-09-22T01:50:25.452Z,101804.59
2022-09-22T01:55:53.549Z,101802.56
2022-09-22T02:01:05.531Z,101789.75
2022-09-22T02:06:34.130Z,101795.53
2022-09-22T02:11:35.809Z,101795.38
2022-09-22T02:16:37.513Z,101795.38
2022-09-22T02:21:40.463Z,101802.81
2022-09-22T02:26:42.036Z,101792.38
2022-09-22T02:31:43.690Z,101799.78
2022-09-22T02:37:10.947Z,101786.84
2022-09-22T02:42:34.732Z,101790.53
2022-09-22T02:47:48.121Z,101772.00
2022-09-22T02:52:57.292Z,101771.56
2022-09-22T02:57:58.849Z,101768.38
2022-09-22T03:03:00.533Z,101768.25
2022-09-22T03:08:02.128Z,101770.75
2022-09-22T03:13:15.902Z,101756.63
2022-09-22T03:18:18.259Z,101754.72
2022-09-22T03:23:19.751Z,101755.53
2022-09-22T03:28:21.440Z,101758.81
2022-09-22T03:33:22.915Z,101744.44
2022-09-22T03:38:24.440Z,101743.03
2022-09-22T03:43:26.007Z,101732.91
2022-09-22T03:48:28.672Z,101741.38
2022-09-22T03:53:30.331Z,101740.13
2022-09-22T03:58:31.887Z,101742.97
2022-09-22T04:03:34.332Z,101747.06
2022-09-22T04:08:36.258Z,101744.34
2022-09-22T04:13:38.981Z,101738.44
2022-09-22T04:18:43.604Z,101740.13
2022-09-22T04:23:45.099Z,101732.00
2022-09-22T04:28:46.613Z,101737.25
2022-09-22T04:33:48.144Z,101739.03
2022-09-22T04:38:49.686Z,101737.66
2022-09-22T04:43:51.394Z,101731.88
2022-09-22T04:48:53.190Z,101737.63
2022-09-22T04:53:54.758Z,101734.03
2022-09-22T04:58:56.289Z,101735.72
2022-09-22T05:03:57.801Z,101739.16
2022-09-22T05:08:59.302Z,101728.31
2022-09-22T05:14:01.023Z,101741.34
2022-09-22T05:19:02.522Z,101740.03
2022-09-22T05:24:04.189Z,101746.78
2022-09-22T05:29:05.703Z,101746.81
2022-09-22T05:34:07.492Z,101744.34
2022-09-22T05:39:09.094Z,101746.25
2022-09-22T05:44:10.658Z,101753.34
2022-09-22T05:49:12.571Z,101754.88
2022-09-22T05:54:14.080Z,101759.53
2022-09-22T05:59:15.742Z,101757.88
2022-09-22T06:04:17.234Z,101767.25
2022-09-22T06:09:18.781Z,101769.81
2022-09-22T06:14:20.274Z,101763.50
2022-09-22T06:19:22.090Z,101761.50
2022-09-22T06:24:24.027Z,101761.31
2022-09-22T06:29:25.548Z,101764.97
2022-09-22T06:34:27.245Z,101762.06
2022-09-22T06:39:28.794Z,101764.91
2022-09-22T06:44:30.486Z,101763.47
2022-09-22T06:49:32.246Z,101767.09
2022-09-22T06:54:33.765Z,101763.00
2022-09-22T06:59:35.596Z,101765.66
2022-09-22T07:04:37.077Z,101776.09
2022-09-22T07:09:38.659Z,101774.16
2022-09-22T07:14:40.150Z,101770.84
2022-09-22T07:19:42.303Z,101768.50
2022-09-22T07:24:43.842Z,101767.28
2022-09-22T07:29:45.359Z,101770.28
2022-09-22T07:34:47.040Z,101760.22
2022-09-22T07:39:48.526Z,101763.38
2022-09-22T07:44:49.998Z,101765.53
2022-09-22T07:49:51.611Z,101767.88
2022-09-22T07:54:53.231Z,101764.47
2022-09-22T07:59:54.813Z,101768.50
2022-09-22T08:04:58.696Z,101762.88
2022-09-22T08:10:00.206Z,101761.19
2022-09-22T08:15:01.900Z,101762.13
2022-09-22T08:20:03.920Z,101753.22
2022-09-22T08:25:07.867Z,101757.03
2022-09-22T08:30:09.571Z,101758.91
2022-09-22T08:35:11.167Z,101759.38
2022-09-22T08:40:21.267Z,101761.38
2022-09-22T08:45:32.467Z,101753.88
2022-09-22T08:50:46.121Z,101760.16
2022-09-22T08:55:55.277Z,101756.81
2022-09-22T09:01:09.958Z,101754.31
2022-09-22T09:06:29.652Z,101762.50
2022-09-22T09:11:45.688Z,101756.47
2022-09-22T09:17:01.016Z,101759.31
2022-09-22T09:22:07.866Z,101758.97
2022-09-22T09:27:16.250Z,101760.72
2022-09-22T09:32:31.092Z,101761.03
2022-09-22T09:37:32.837Z,101747.09
2022-09-22T09:42:35.243Z,101754.09
2022-09-22T09:47:59.070Z,101736.19
2022-09-22T09:53:01.479Z,101740.41
2022-09-22T09:58:11.568Z,101736.13
2022-09-22T10:03:33.591Z,101720.03
2022-09-22T10:08:47.453Z,101708.28
2022-09-22T10:13:56.822Z,101705.16
2022-09-22T10:18:58.260Z,101701.50
2022-09-22T10:24:00.753Z,101703.72
2022-09-22T10:29:32.039Z,101694.38
2022-09-22T10:39:58.786Z,101681.84
2022-09-22T10:45:13.301Z,101674.75
2022-09-22T10:50:23.584Z,101672.13
2022-09-22T10:55:30.563Z,101668.16
2022-09-22T11:00:39.213Z,101661.97
2022-09-22T11:06:05.983Z,101663.69
2022-09-22T11:11:27.272Z,101653.69
2022-09-22T11:16:46.165Z,101651.03
2022-09-22T11:22:18.770Z,101642.31
2022-09-22T11:27:35.215Z,101645.59
2022-09-22T11:32:55.647Z,101640.06
2022-09-22T11:38:21.258Z,101632.25
2022-09-22T11:43:41.241Z,101626.78
2022-09-22T11:48:55.628Z,101623.72
2022-09-22T11:54:09.758Z,101619.94
2022-09-22T12:00:04.724Z,101605.78
2022-09-22T12:05:19.619Z,101603.22
2022-09-22T12:10:35.352Z,101595.31
2022-09-22T12:15:40.006Z,101589.75
2022-09-22T12:20:53.559Z,101582.88
2022-09-22T12:25:57.821Z,101580.22
2022-09-22T12:31:11.478Z,101561.81
2022-09-22T12:36:14.193Z,101568.03
2022-09-22T12:41:19.329Z,101557.78
2022-09-22T12:46:26.866Z,101552.88
2022-09-22T12:51:30.750Z,101556.06
2022-09-22T12:56:45.275Z,101539.31
2022-09-22T13:02:12.651Z,101537.66
2022-09-22T13:07:45.001Z,101540.47
2022-09-22T13:13:01.627Z,101535.41
2022-09-22T13:18:04.365Z,101523.22
2022-09-22T13:23:13.127Z,101531.97
2022-09-22T13:28:23.265Z,101513.72
2022-09-22T13:33:27.986Z,101512.53
2022-09-22T13:38:31.005Z,101507.50
2022-09-22T13:43:38.199Z,101500.91
2022-09-22T13:48:39.875Z,101505.34
2022-09-22T13:53:49.263Z,101495.78
2022-09-22T13:58:53.278Z,101494.63
2022-09-22T14:03:55.803Z,101486.91
2022-09-22T14:08:58.129Z,101483.56
2022-09-22T14:14:02.090Z,101488.16
2022-09-22T14:19:13.495Z,101466.25
2022-09-22T14:24:15.498Z,101469.13
2022-09-22T14:29:23.049Z,101465.00
2022-09-22T14:34:30.485Z,101453.56
2022-09-22T14:39:32.472Z,101449.41
2022-09-22T14:44:36.972Z,101440.84
2022-09-22T14:49:40.945Z,101433.59
2022-09-22T14:54:44.199Z,101420.69
2022-09-22T14:59:54.691Z,101415.31
2022-09-22T15:04:56.509Z,101420.09
2022-09-22T15:10:01.025Z,101405.91
2022-09-22T15:15:02.808Z,101405.06
2022-09-22T15:20:04.586Z,101412.81
2022-09-22T15:25:06.460Z,101402.72
2022-09-22T15:30:13.525Z,101397.88
2022-09-22T15:35:16.760Z,101399.06
2022-09-22T15:40:21.302Z,101393.34
2022-09-22T15:45:23.616Z,101384.91
2022-09-22T15:50:29.426Z,101386.56
2022-09-22T15:55:30.953Z,101376.66
2022-09-22T16:00:32.656Z,101374.97
2022-09-22T16:05:34.192Z,101370.28
2022-09-22T16:10:35.716Z,101367.59
2022-09-22T16:15:37.710Z,101365.75
2022-09-22T16:20:39.384Z,101361.78
2022-09-22T16:25:40.929Z,101362.50
2022-09-22T16:30:42.427Z,101356.16
2022-09-22T16:35:43.954Z,101357.75
2022-09-22T16:40:59.192Z,101350.53
2022-09-22T16:46:00.743Z,101351.72
2022-09-22T16:51:02.281Z,101347.28
2022-09-22T16:56:03.873Z,101348.59
2022-09-22T17:01:05.651Z,101346.00
2022-09-22T17:06:09.014Z,101349.63
2022-09-22T17:11:11.899Z,101347.06
2022-09-22T17:16:21.488Z,101350.47
2022-09-22T17:21:23.463Z,101345.25
2022-09-22T17:26:24.958Z,101343.13
2022-09-22T17:31:27.808Z,101343.16
2022-09-22T17:36:29.602Z,101343.97
2022-09-22T17:41:33.587Z,101343.53
2022-09-22T17:46:35.313Z,101343.31
2022-09-22T17:51:38.098Z,101354.75
2022-09-22T17:56:39.655Z,101356.00
2022-09-22T18:01:41.236Z,101350.28
2022-09-22T18:06:42.758Z,101353.31
2022-09-22T18:11:44.994Z,101347.84
2022-09-22T18:16:46.545Z,101345.16
2022-09-22T18:21:48.692Z,101349.94
2022-09-22T18:26:50.363Z,101345.84
2022-09-22T18:31:52.212Z,101344.94
2022-09-22T18:36:54.217Z,101351.34
2022-09-22T18:41:55.823Z,101354.13
2022-09-22T18:46:57.381Z,101352.94
2022-09-22T18:52:00.083Z,101357.09
2022-09-22T18:57:01.731Z,101351.44
2022-09-22T19:02:03.374Z,101352.88
2022-09-22T19:07:04.948Z,101350.78
2022-09-22T19:12:08.263Z,101353.00
2022-09-22T19:17:11.613Z,101340.81
2022-09-22T19:22:13.162Z,101347.84
2022-09-22T19:27:16.939Z,101336.03
2022-09-22T19:32:18.528Z,101346.03
2022-09-22T19:37:20.915Z,101345.28
2022-09-22T19:42:22.431Z,101348.50
2022-09-22T19:47:23.988Z,101345.25
2022-09-22T19:52:27.437Z,101342.16
2022-09-22T19:57:29.058Z,101340.63
2022-09-22T20:02:30.584Z,101334.78
2022-09-22T20:07:32.311Z,101336.81
2022-09-22T20:12:33.878Z,101337.69
2022-09-22T20:17:35.487Z,101340.69
2022-09-22T20:22:37.633Z,101335.31
2022-09-22T20:27:39.194Z,101329.59
2022-09-22T20:32:40.697Z,101331.88
2022-09-22T20:37:42.237Z,101332.69
2022-09-22T20:42:43.807Z,101324.88
2022-09-22T20:47:45.338Z,101336.75
2022-09-22T20:52:46.942Z,101326.88
2022-09-22T20:57:48.722Z,101328.69
2022-09-22T21:02:50.425Z,101323.75
2022-09-22T21:07:51.980Z,101314.31
2022-09-22T21:12:53.507Z,101313.31
2022-09-22T21:17:55.111Z,101309.00
2022-09-22T21:22:56.639Z,101308.94
2022-09-22T21:27:58.128Z,101308.88
2022-09-22T21:32:59.896Z,101299.94
2022-09-22T21:38:01.405Z,101302.66
2022-09-22T21:43:02.893Z,101307.34
2022-09-22T21:48:04.546Z,101309.50
2022-09-22T21:53:06.064Z,101303.63
2022-09-22T21:58:07.598Z,101307.94
2022-09-22T22:03:09.238Z,101301.50
2022-09-22T22:08:10.737Z,101294.66
2022-09-22T22:13:12.221Z,101299.84
2022-09-22T22:18:13.914Z,101295.81
2022-09-22T22:23:15.398Z,101293.63
2022-09-22T22:28:16.901Z,101295.16
2022-09-22T22:33:18.676Z,101285.97
2022-09-22T22:38:23.596Z,101284.00
2022-09-22T22:43:25.120Z,101276.75
2022-09-22T22:48:27.277Z,101286.53
2022-09-22T22:53:28.841Z,101279.59
2022-09-22T22:58:32.571Z,101276.50
2022-09-22T23:03:34.055Z,101270.09
2022-09-22T23:08:35.874Z,101273.38
2022-09-22T23:13:39.451Z,101272.53
2022-09-22T23:18:41.611Z,101273.41
2022-09-22T23:23:44.116Z,101258.50
2022-09-22T23:28:45.773Z,101254.00
2022-09-22T23:33:48.911Z,101251.78
2022-09-22T23:38:59.106Z,101255.16
2022-09-22T23:44:01.021Z,101247.19
2022-09-22T23:49:02.653Z,101256.31
2022-09-22T23:54:04.403Z,101248.38
2022-09-22T23:59:06.091Z,101247.34
